createdAt,value
2018-04-16T00:02:12.874Z,7.37
2018-04-16T00:04:47.413Z,6.90
2018-04-16T00:07:20.938Z,7.00
2018-04-16T00:09:54.704Z,6.90
2018-04-16T00:12:28.413Z,6.60
2018-04-16T00:15:02.132Z,7.63
2018-04-16T00:17:36.110Z,6.90
2018-04-16T00:20:09.747Z,6.00
2018-04-16T00:32:34.193Z,5.23
2018-04-16T00:38:16.193Z,4.00
2018-04-16T00:40:55.440Z,4.00
2018-04-16T00:43:34.636Z,2.90
2018-04-16T00:46:13.970Z,3.20
2018-04-16T00:48:53.218Z,3.37
2018-04-16T00:51:32.307Z,3.13
2018-04-16T00:54:23.663Z,3.70
2018-04-16T00:57:02.826Z,3.30
2018-04-16T00:59:42.026Z,3.10
2018-04-16T01:02:21.200Z,3.40
2018-04-16T01:05:00.287Z,2.80
2018-04-16T01:07:39.496Z,3.70
2018-04-16T01:10:18.616Z,3.53
2018-04-16T01:12:57.836Z,4.07
2018-04-16T01:15:37.214Z,4.00
2018-04-16T01:18:16.391Z,3.87
2018-04-16T01:20:55.471Z,4.13
2018-04-16T01:23:34.575Z,4.53
2018-04-16T01:26:13.638Z,4.30
2018-04-16T01:28:52.799Z,5.10
2018-04-16T01:31:32.019Z,5.43
2018-04-16T01:34:11.326Z,5.37
2018-04-16T01:46:35.585Z,7.07
2018-04-16T01:49:14.837Z,8.03
2018-04-16T01:51:54.128Z,7.87
2018-04-16T01:54:33.390Z,9.07
2018-04-16T01:57:12.714Z,9.70
2018-04-16T01:59:52.034Z,10.07
2018-04-16T02:02:31.326Z,9.53
2018-04-16T02:05:10.904Z,10.13
2018-04-16T02:07:50.203Z,10.50
2018-04-16T02:10:29.463Z,11.03
2018-04-16T02:13:08.561Z,10.63
2018-04-16T02:15:47.923Z,11.73
2018-04-16T02:31:29.112Z,11.57
2018-04-16T02:34:09.510Z,12.13
2018-04-16T02:36:48.618Z,11.83
2018-04-16T02:39:27.896Z,11.83
2018-04-16T02:42:07.237Z,12.50
2018-04-16T02:44:46.607Z,13.90
2018-04-16T02:47:25.762Z,13.43
2018-04-16T02:50:04.926Z,12.57
2018-04-16T02:52:43.965Z,13.60
2018-04-16T02:55:23.088Z,13.03
2018-04-16T02:58:02.550Z,13.93
2018-04-16T03:00:41.785Z,13.50
2018-04-16T03:03:21.241Z,14.10
2018-04-16T03:06:00.954Z,13.77
2018-04-16T03:08:40.239Z,12.77
2018-04-16T03:11:19.376Z,14.40
2018-04-16T03:13:58.468Z,13.23
2018-04-16T03:16:37.729Z,13.17
2018-04-16T03:19:16.907Z,13.10
2018-04-16T03:21:56.144Z,14.37
2018-04-16T03:24:35.466Z,14.23
2018-04-16T03:27:14.677Z,12.97
2018-04-16T03:29:54.719Z,13.60
2018-04-16T03:32:33.788Z,12.40
2018-04-16T03:35:13.280Z,12.60
2018-04-16T03:37:52.457Z,12.93
2018-04-16T03:40:31.687Z,12.60
2018-04-16T03:43:11.326Z,13.27
2018-04-16T03:45:50.635Z,13.33
2018-04-16T03:48:29.829Z,13.50
2018-04-16T03:51:14.299Z,11.60
2018-04-16T03:53:48.385Z,13.33
2018-04-16T03:56:22.142Z,13.30
2018-04-16T03:58:55.667Z,13.60
2018-04-16T04:01:29.267Z,13.57
2018-04-16T04:04:02.827Z,14.97
2018-04-16T04:06:36.403Z,14.37
2018-04-16T04:09:10.128Z,13.27
2018-04-16T04:11:44.163Z,13.50
2018-04-16T04:14:17.858Z,14.13
2018-04-16T04:16:51.494Z,13.70
2018-04-16T04:19:25.586Z,13.67
2018-04-16T04:21:59.209Z,14.87
2018-04-16T04:24:44.661Z,15.27
2018-04-16T04:27:30.882Z,17.10
2018-04-16T04:30:16.185Z,17.00
2018-04-16T04:32:49.867Z,16.43
2018-04-16T04:35:23.511Z,16.67
2018-04-16T04:37:57.051Z,16.43
2018-04-16T04:40:30.633Z,14.90
2018-04-16T04:43:04.443Z,15.23
2018-04-16T04:45:39.009Z,14.40
2018-04-16T04:48:12.815Z,13.67
2018-04-16T04:50:46.457Z,13.90
2018-04-16T04:53:19.976Z,13.20
2018-04-16T04:55:53.663Z,12.53
2018-04-16T04:58:27.262Z,12.33
2018-04-16T05:01:00.975Z,10.57
2018-04-16T05:03:35.507Z,9.60
2018-04-16T05:06:09.177Z,8.83
2018-04-16T05:08:43.196Z,8.63
2018-04-16T05:11:16.835Z,7.53
2018-04-16T05:13:50.382Z,7.53
2018-04-16T05:16:24.007Z,7.10
2018-04-16T05:18:57.574Z,7.43
2018-04-16T05:21:31.282Z,7.93
2018-04-16T05:24:04.866Z,7.47
2018-04-16T05:26:38.603Z,7.10
2018-04-16T05:29:12.422Z,5.80
2018-04-16T05:31:46.017Z,6.23
2018-04-16T05:34:19.996Z,5.47
2018-04-16T05:36:53.744Z,5.70
2018-04-16T05:39:27.329Z,5.63
2018-04-16T05:42:01.137Z,5.80
2018-04-16T05:44:35.828Z,5.60
2018-04-16T05:47:09.459Z,5.70
2018-04-16T05:49:43.764Z,5.30
2018-04-16T05:52:17.370Z,5.23
2018-04-16T05:54:51.160Z,5.10
2018-04-16T05:57:24.908Z,5.30
2018-04-16T05:59:58.582Z,5.73
2018-04-16T06:02:33.140Z,5.07
2018-04-16T06:05:06.985Z,4.10
2018-04-16T06:07:40.635Z,4.50
2018-04-16T06:10:14.230Z,4.53
2018-04-16T06:12:48.419Z,5.00
2018-04-16T06:15:21.974Z,4.70
2018-04-16T06:17:55.531Z,4.97
2018-04-16T06:20:29.199Z,5.80
2018-04-16T06:23:02.763Z,6.03
2018-04-16T06:25:36.439Z,4.97
2018-04-16T06:28:09.995Z,5.50
2018-04-16T06:30:43.670Z,5.30
2018-04-16T06:33:17.359Z,4.50
2018-04-16T06:35:50.926Z,4.93
2018-04-16T06:38:24.414Z,5.60
2018-04-16T06:40:58.200Z,4.93
2018-04-16T06:43:31.874Z,5.00
2018-04-16T06:46:05.407Z,5.57
2018-04-16T06:48:39.048Z,5.43
2018-04-16T06:51:12.732Z,4.67
2018-04-16T06:53:46.363Z,5.33
2018-04-16T06:56:19.924Z,4.50
2018-04-16T06:58:53.804Z,5.67
2018-04-16T07:11:12.646Z,5.43
2018-04-16T07:13:46.386Z,4.37
2018-04-16T07:16:20.717Z,4.97
2018-04-16T07:18:54.467Z,5.30
2018-04-16T07:21:28.021Z,5.60
2018-04-16T07:24:01.564Z,4.63
2018-04-16T07:26:35.274Z,4.83
2018-04-16T07:29:09.050Z,5.53
2018-04-16T07:31:42.567Z,4.67
2018-04-16T07:34:16.377Z,4.30
2018-04-16T07:49:50.214Z,4.73
2018-04-16T07:52:23.935Z,4.37
2018-04-16T07:54:57.665Z,5.07
2018-04-16T07:57:31.370Z,5.07
2018-04-16T08:00:04.966Z,5.00
2018-04-16T08:02:39.182Z,5.20
2018-04-16T08:05:13.268Z,5.00
2018-04-16T08:07:46.770Z,5.70
2018-04-16T08:10:20.270Z,4.97
2018-04-16T08:12:53.919Z,4.43
2018-04-16T08:15:27.527Z,4.70
2018-04-16T08:18:01.655Z,5.70
2018-04-16T08:20:35.219Z,4.70
2018-04-16T08:23:09.831Z,4.73
2018-04-16T08:25:43.816Z,5.10
2018-04-16T08:28:17.480Z,4.70
2018-04-16T08:30:51.920Z,4.97
2018-04-16T08:33:25.454Z,4.80
2018-04-16T08:35:59.045Z,4.90
2018-04-16T08:38:32.707Z,4.33
2018-04-16T08:41:06.401Z,5.77
2018-04-16T08:43:39.947Z,5.27
2018-04-16T08:46:13.458Z,5.40
2018-04-16T08:48:46.981Z,4.77
2018-04-16T08:51:20.610Z,4.67
2018-04-16T08:53:54.269Z,4.73
2018-04-16T08:56:27.818Z,5.20
2018-04-16T08:59:01.580Z,4.93
2018-04-16T09:01:35.184Z,5.00
2018-04-16T09:04:08.708Z,4.73
2018-04-16T09:06:42.216Z,3.83
2018-04-16T09:09:15.832Z,4.37
2018-04-16T09:11:49.602Z,4.37
2018-04-16T09:14:23.907Z,3.80
2018-04-16T09:16:57.478Z,4.60
2018-04-16T09:19:31.014Z,4.13
2018-04-16T09:22:04.937Z,3.40
2018-04-16T09:24:39.483Z,4.23
2018-04-16T09:27:13.133Z,3.70
2018-04-16T09:29:46.658Z,4.03
2018-04-16T09:32:20.316Z,3.97
2018-04-16T09:34:53.972Z,3.70
2018-04-16T09:37:27.688Z,4.27
2018-04-16T09:40:01.206Z,4.10
2018-04-16T09:42:35.621Z,3.20
2018-04-16T09:45:10.127Z,3.90
2018-04-16T09:47:43.748Z,3.83
2018-04-16T09:50:18.152Z,3.60
2018-04-16T09:52:51.717Z,3.70
2018-04-16T09:55:25.261Z,3.70
2018-04-16T09:57:59.389Z,3.87
2018-04-16T10:00:38.894Z,3.17
2018-04-16T10:03:18.355Z,4.00
2018-04-16T10:05:51.957Z,3.43
2018-04-16T10:08:25.507Z,3.87
2018-04-16T10:10:59.462Z,3.60
2018-04-16T10:13:33.589Z,3.53
2018-04-16T10:16:07.169Z,4.40
2018-04-16T10:18:40.644Z,3.10
2018-04-16T10:21:14.348Z,2.80
2018-04-16T10:23:47.888Z,2.50
2018-04-16T10:26:21.396Z,2.57
2018-04-16T10:28:55.065Z,2.87
2018-04-16T10:31:28.837Z,2.97
2018-04-16T10:34:03.327Z,2.70
2018-04-16T10:36:36.939Z,3.43
2018-04-16T10:39:10.696Z,3.30
2018-04-16T10:41:44.354Z,2.73
2018-04-16T10:44:18.635Z,3.37
2018-04-16T10:46:53.211Z,3.17
2018-04-16T10:49:26.834Z,2.47
2018-04-16T10:52:00.496Z,2.90
2018-04-16T10:54:34.060Z,2.90
2018-04-16T10:57:08.053Z,3.97
2018-04-16T10:59:41.579Z,3.10
2018-04-16T11:02:15.099Z,2.90
2018-04-16T11:14:33.843Z,3.00
2018-04-16T11:17:07.423Z,3.10
2018-04-16T11:19:41.744Z,2.10
2018-04-16T11:22:15.453Z,3.23
2018-04-16T11:24:49.556Z,3.73
2018-04-16T11:27:23.367Z,3.33
2018-04-16T11:29:57.662Z,3.30
2018-04-16T11:32:31.239Z,2.83
2018-04-16T11:35:04.823Z,3.10
2018-04-16T11:37:38.817Z,3.20
2018-04-16T11:40:12.427Z,2.67
2018-04-16T11:42:46.163Z,2.93
2018-04-16T11:45:20.565Z,3.27
2018-04-16T11:47:54.511Z,3.43
2018-04-16T11:50:29.183Z,3.23
2018-04-16T11:53:02.926Z,3.23
2018-04-16T11:55:36.871Z,3.33
2018-04-16T11:58:10.605Z,3.27
2018-04-16T12:00:44.489Z,3.50
2018-04-16T12:03:18.065Z,3.27
2018-04-16T12:05:51.615Z,3.07
2018-04-16T12:08:25.095Z,3.40
2018-04-16T12:10:59.815Z,3.40
2018-04-16T12:13:33.345Z,2.83
2018-04-16T12:16:06.872Z,2.87
2018-04-16T12:18:40.663Z,3.03
2018-04-16T12:21:14.479Z,2.40
2018-04-16T12:23:47.990Z,3.30
2018-04-16T12:26:22.359Z,3.33
2018-04-16T12:28:55.931Z,3.00
2018-04-16T12:31:29.708Z,2.93
2018-04-16T12:34:03.247Z,2.57
2018-04-16T12:36:37.859Z,2.80
2018-04-16T12:39:11.683Z,3.10
2018-04-16T12:41:45.334Z,2.20
2018-04-16T12:44:19.088Z,2.87
2018-04-16T12:46:52.608Z,2.77
2018-04-16T12:49:26.573Z,2.97
2018-04-16T12:52:00.738Z,3.30
2018-04-16T12:54:34.464Z,3.30
2018-04-16T12:57:08.169Z,3.10
2018-04-16T12:59:42.078Z,3.40
2018-04-16T13:02:15.721Z,3.83
2018-04-16T13:04:49.277Z,3.80
2018-04-16T13:07:22.821Z,3.90
2018-04-16T13:09:57.522Z,4.30
2018-04-16T13:12:31.942Z,4.37
2018-04-16T13:15:06.595Z,4.00
2018-04-16T13:17:40.217Z,4.07
2018-04-16T13:20:13.972Z,3.77
2018-04-16T13:22:47.656Z,3.87
2018-04-16T13:25:21.268Z,4.30
2018-04-16T13:27:54.950Z,4.00
2018-04-16T13:40:14.523Z,3.90
2018-04-16T13:42:48.106Z,3.70
2018-04-16T13:45:21.696Z,3.47
2018-04-16T13:47:55.235Z,3.40
2018-04-16T13:50:28.977Z,3.03
2018-04-16T13:53:02.823Z,4.67
2018-04-16T13:55:36.639Z,3.90
2018-04-16T13:58:10.356Z,3.53
2018-04-16T14:00:44.120Z,3.00
2018-04-16T14:03:17.862Z,3.30
2018-04-16T14:05:51.398Z,3.20
2018-04-16T14:08:25.035Z,3.03
2018-04-16T14:10:58.760Z,3.03
2018-04-16T14:13:32.499Z,3.00
2018-04-16T14:16:06.218Z,3.43
2018-04-16T14:18:39.773Z,3.90
2018-04-16T14:21:13.594Z,4.23
2018-04-16T14:23:48.436Z,3.63
2018-04-16T14:26:21.999Z,3.33
2018-04-16T14:28:56.613Z,4.20
2018-04-16T14:31:30.269Z,3.57
2018-04-16T14:34:03.823Z,3.17
2018-04-16T14:36:37.401Z,4.03
2018-04-16T14:39:10.947Z,2.57
2018-04-16T14:41:44.473Z,3.97
2018-04-16T14:44:18.016Z,3.03
2018-04-16T14:46:51.614Z,3.23
2018-04-16T14:59:10.297Z,2.90
2018-04-16T15:01:45.111Z,3.17
2018-04-16T15:04:18.684Z,3.87
2018-04-16T15:06:52.347Z,3.37
2018-04-16T15:09:25.958Z,3.27
2018-04-16T15:11:59.730Z,3.20
2018-04-16T15:14:33.440Z,3.13
2018-04-16T15:17:07.239Z,2.73
2018-04-16T15:19:40.921Z,2.93
2018-04-16T15:22:14.593Z,3.93
2018-04-16T15:24:48.216Z,2.87
2018-04-16T15:27:21.952Z,2.47
2018-04-16T15:29:55.501Z,3.03
2018-04-16T15:32:29.148Z,2.27
2018-04-16T15:47:57.931Z,2.40
2018-04-16T15:50:31.551Z,1.73
2018-04-16T15:53:05.186Z,2.00
2018-04-16T15:55:39.611Z,2.07
2018-04-16T15:58:13.348Z,1.80
2018-04-16T16:00:47.014Z,1.70
2018-04-16T16:03:20.580Z,2.10
2018-04-16T16:05:54.316Z,2.50
2018-04-16T16:08:28.160Z,2.27
2018-04-16T16:11:02.061Z,2.90
2018-04-16T16:13:35.698Z,2.50
2018-04-16T16:16:09.381Z,2.50
2018-04-16T16:18:42.938Z,2.50
2018-04-16T16:21:16.434Z,2.30
2018-04-16T16:23:50.180Z,2.60
2018-04-16T16:26:24.036Z,2.20
2018-04-16T16:28:57.719Z,3.07
2018-04-16T16:31:31.229Z,2.90
2018-04-16T16:34:04.739Z,2.70
2018-04-16T16:36:38.375Z,3.03
2018-04-16T16:39:12.081Z,2.53
2018-04-16T16:41:45.948Z,2.47
2018-04-16T16:44:19.479Z,2.40
2018-04-16T16:46:54.144Z,2.67
2018-04-16T16:49:27.674Z,2.67
2018-04-16T16:52:01.375Z,2.80
2018-04-16T16:54:34.890Z,3.23
2018-04-16T16:57:08.427Z,2.70
2018-04-16T16:59:42.113Z,2.50
2018-04-16T17:02:15.619Z,2.60
2018-04-16T17:04:49.233Z,2.60
2018-04-16T17:07:22.807Z,2.53
2018-04-16T17:09:56.359Z,2.77
2018-04-16T17:12:30.447Z,2.43
2018-04-16T17:15:04.099Z,2.13
2018-04-16T17:17:37.641Z,2.10
2018-04-16T17:20:11.206Z,2.70
2018-04-16T17:22:44.678Z,2.47
2018-04-16T17:25:18.223Z,2.43
2018-04-16T17:27:52.188Z,2.77
2018-04-16T17:30:25.942Z,3.00
2018-04-16T17:32:59.667Z,2.60
2018-04-16T17:35:33.241Z,5.50
2018-04-16T17:38:06.916Z,5.07
2018-04-16T17:40:40.609Z,4.83
2018-04-16T17:43:14.179Z,3.67
2018-04-16T17:45:47.725Z,3.13
2018-04-16T17:48:21.281Z,3.27
2018-04-16T17:50:56.354Z,3.67
2018-04-16T17:53:30.103Z,3.17
2018-04-16T17:56:03.939Z,2.83
2018-04-16T17:58:37.887Z,2.83
2018-04-16T18:01:11.499Z,3.50
2018-04-16T18:03:45.473Z,2.37
2018-04-16T18:06:19.095Z,2.27
2018-04-16T18:08:52.544Z,2.97
2018-04-16T18:11:26.069Z,2.90
2018-04-16T18:13:59.751Z,4.10
2018-04-16T18:16:33.550Z,2.57
2018-04-16T18:19:07.376Z,2.57
2018-04-16T18:21:41.046Z,2.60
2018-04-16T18:24:14.573Z,2.13
2018-04-16T18:26:48.103Z,2.50
2018-04-16T18:29:22.673Z,2.33
2018-04-16T18:31:57.422Z,2.57
2018-04-16T18:34:31.678Z,2.60
2018-04-16T18:37:05.200Z,2.77
2018-04-16T18:39:39.119Z,2.60
2018-04-16T18:42:12.800Z,2.47
2018-04-16T18:44:46.292Z,2.40
2018-04-16T18:47:20.651Z,2.77
2018-04-16T18:49:54.200Z,2.00
2018-04-16T18:52:27.796Z,2.40
2018-04-16T18:55:01.765Z,2.30
2018-04-16T18:57:35.461Z,2.57
2018-04-16T19:00:09.151Z,2.40
2018-04-16T19:02:43.316Z,3.23
2018-04-16T19:05:17.632Z,2.53
2018-04-16T19:07:52.456Z,3.07
2018-04-16T19:10:26.133Z,2.53
2018-04-16T19:13:00.861Z,3.50
2018-04-16T19:15:35.160Z,2.80
2018-04-16T19:18:09.735Z,3.07
2018-04-16T19:23:52.145Z,2.93
2018-04-16T19:26:25.941Z,2.63
2018-04-16T19:28:59.922Z,2.53
2018-04-16T19:31:33.526Z,2.77
2018-04-16T19:34:12.652Z,3.03
2018-04-16T19:36:46.360Z,2.60
2018-04-16T19:39:20.832Z,2.83
2018-04-16T19:42:00.226Z,3.27
2018-04-16T19:44:33.824Z,3.00
2018-04-16T19:47:07.808Z,2.97
2018-04-16T19:52:42.182Z,2.70
2018-04-16T19:55:15.883Z,3.50
2018-04-16T19:57:55.392Z,2.70
2018-04-16T20:00:29.087Z,3.67
2018-04-16T20:03:08.190Z,3.53
2018-04-16T20:05:41.920Z,3.10
2018-04-16T20:08:16.286Z,2.67
2018-04-16T20:10:50.065Z,3.10
2018-04-16T20:13:23.764Z,2.97
2018-04-16T20:15:57.416Z,2.50
2018-04-16T20:18:31.035Z,2.77
2018-04-16T20:21:04.657Z,2.47
2018-04-16T20:23:38.232Z,3.00
2018-04-16T20:26:12.018Z,3.00
2018-04-16T20:28:45.575Z,2.80
2018-04-16T20:31:19.300Z,2.93
2018-04-16T20:33:52.979Z,3.13
2018-04-16T20:36:26.699Z,2.70
2018-04-16T20:39:00.630Z,3.70
2018-04-16T20:41:34.289Z,2.83
2018-04-16T20:44:08.014Z,2.97
2018-04-16T20:46:41.798Z,3.40
2018-04-16T20:49:15.395Z,2.50
2018-04-16T20:51:48.932Z,3.10
2018-04-16T20:54:22.530Z,2.80
2018-04-16T20:56:56.107Z,4.67
2018-04-16T20:59:29.710Z,4.10
2018-04-16T21:02:03.387Z,3.57
2018-04-16T21:04:37.086Z,3.43
2018-04-16T21:07:11.380Z,2.80
2018-04-16T21:09:44.970Z,3.00
2018-04-16T21:12:18.548Z,3.40
2018-04-16T21:14:52.151Z,3.73
2018-04-16T21:17:25.816Z,3.57
2018-04-16T21:19:59.485Z,3.73
2018-04-16T21:22:33.039Z,3.73
2018-04-16T21:25:06.853Z,3.60
2018-04-16T21:27:40.604Z,3.43
2018-04-16T21:30:14.122Z,3.60
2018-04-16T21:32:47.600Z,3.63
2018-04-16T21:35:21.254Z,3.10
2018-04-16T21:37:55.004Z,3.10
2018-04-16T21:40:28.548Z,3.10
2018-04-16T21:43:02.139Z,2.97
2018-04-16T21:45:35.728Z,3.03
2018-04-16T21:48:09.231Z,2.90
2018-04-16T21:50:42.973Z,3.20
2018-04-16T21:53:16.723Z,3.33
2018-04-16T21:55:50.375Z,3.20
2018-04-16T21:58:24.147Z,4.23
2018-04-16T22:00:58.268Z,3.93
2018-04-16T22:03:31.847Z,4.40
2018-04-16T22:06:05.657Z,3.93
2018-04-16T22:08:39.456Z,4.37
2018-04-16T22:11:13.095Z,4.00
2018-04-16T22:13:46.686Z,3.37
2018-04-16T22:16:20.272Z,3.63
2018-04-16T22:18:54.060Z,3.30
2018-04-16T22:21:28.645Z,3.27
2018-04-16T22:24:02.175Z,3.13
2018-04-16T22:26:35.753Z,2.77
2018-04-16T22:29:09.372Z,3.13
2018-04-16T22:31:42.924Z,2.63
2018-04-16T22:34:16.494Z,3.37
2018-04-16T22:36:50.371Z,3.10
2018-04-16T22:39:23.899Z,2.97
2018-04-16T22:41:57.568Z,2.93
2018-04-16T22:44:31.731Z,3.47
2018-04-16T22:47:05.371Z,2.90
2018-04-16T22:49:39.100Z,3.17
2018-04-16T22:52:13.312Z,3.13
2018-04-16T22:54:46.994Z,3.37
2018-04-16T22:57:20.547Z,2.60
2018-04-16T22:59:54.027Z,2.93
2018-04-16T23:02:28.063Z,2.60
2018-04-16T23:05:01.667Z,2.70
2018-04-16T23:07:35.475Z,3.30
2018-04-16T23:10:09.031Z,2.50
2018-04-16T23:12:42.653Z,2.30
2018-04-16T23:15:16.276Z,2.53
2018-04-16T23:17:49.914Z,2.77
2018-04-16T23:20:23.587Z,3.40
2018-04-16T23:22:57.402Z,3.30
2018-04-16T23:25:31.019Z,2.60
2018-04-16T23:28:04.858Z,3.03
2018-04-16T23:30:38.606Z,3.47
2018-04-16T23:33:12.956Z,4.03
2018-04-16T23:35:46.457Z,3.37
2018-04-16T23:38:20.212Z,3.57
2018-04-16T23:40:53.894Z,3.87
2018-04-16T23:43:27.366Z,3.00
2018-04-16T23:46:00.967Z,2.73
2018-04-16T23:48:34.595Z,3.60
2018-04-16T23:51:08.355Z,3.33
2018-04-16T23:53:41.908Z,3.53
2018-04-16T23:56:15.843Z,2.90
2018-04-16T23:58:50.313Z,3.73
